sensor_id;sensor_type;location;lat;lon;timestamp;temperature;humidity
15765;DHT22;7983;50.744;7.086;2024-02-26T00:01:58;9.70;99.90
15765;DHT22;7983;50.744;7.086;2024-02-26T00:04:24;9.60;99.90
15765;DHT22;7983;50.744;7.086;2024-02-26T00:06:52;9.60;99.90
15765;DHT22;7983;50.744;7.086;2024-02-26T00:09:19;9.50;99.90
15765;DHT22;7983;50.744;7.086;2024-02-26T00:11:45;9.50;99.90
15765;DHT22;7983;50.744;7.086;2024-02-26T00:14:10;9.50;99.90
15765;DHT22;7983;50.744;7.086;2024-02-26T00:16:36;9.40;99.90
15765;DHT22;7983;50.744;7.086;2024-02-26T00:19:04;9.40;99.90
15765;DHT22;7983;50.744;7.086;2024-02-26T00:21:30;9.40;99.90
15765;DHT22;7983;50.744;7.086;2024-02-26T00:23:55;9.40;99.90
15765;DHT22;7983;50.744;7.086;2024-02-26T00:26:21;9.40;99.90
15765;DHT22;7983;50.744;7.086;2024-02-26T00:28:47;9.40;99.90
15765;DHT22;7983;50.744;7.086;2024-02-26T00:31:12;9.30;99.90
15765;DHT22;7983;50.744;7.086;2024-02-26T00:33:38;9.30;99.90
15765;DHT22;7983;50.744;7.086;2024-02-26T00:36:06;9.30;99.90
15765;DHT22;7983;50.744;7.086;2024-02-26T00:38:32;9.30;99.90
15765;DHT22;7983;50.744;7.086;2024-02-26T00:40:57;9.30;99.90
15765;DHT22;7983;50.744;7.086;2024-02-26T00:43:25;9.20;99.90
15765;DHT22;7983;50.744;7.086;2024-02-26T00:45:51;9.30;99.90
15765;DHT22;7983;50.744;7.086;2024-02-26T00:48:17;9.30;99.90
15765;DHT22;7983;50.744;7.086;2024-02-26T00:50:43;9.30;99.90
15765;DHT22;7983;50.744;7.086;2024-02-26T00:53:09;9.30;99.90
15765;DHT22;7983;50.744;7.086;2024-02-26T00:55:34;9.30;99.90
15765;DHT22;7983;50.744;7.086;2024-02-26T00:58:00;9.30;99.90
15765;DHT22;7983;50.744;7.086;2024-02-26T01:00:25;9.30;99.90
15765;DHT22;7983;50.744;7.086;2024-02-26T01:02:51;9.20;99.90
15765;DHT22;7983;50.744;7.086;2024-02-26T01:05:17;9.20;99.90
15765;DHT22;7983;50.744;7.086;2024-02-26T01:07:44;9.20;99.90
15765;DHT22;7983;50.744;7.086;2024-02-26T01:10:10;9.10;99.90
15765;DHT22;7983;50.744;7.086;2024-02-26T01:12:36;9.10;99.90
15765;DHT22;7983;50.744;7.086;2024-02-26T01:15:05;9.10;99.90
15765;DHT22;7983;50.744;7.086;2024-02-26T01:17:33;9.00;99.90
15765;DHT22;7983;50.744;7.086;2024-02-26T01:19:58;9.10;99.90
15765;DHT22;7983;50.744;7.086;2024-02-26T01:22:26;9.00;99.90
15765;DHT22;7983;50.744;7.086;2024-02-26T01:24:54;9.00;99.90
15765;DHT22;7983;50.744;7.086;2024-02-26T01:27:22;9.00;99.90
15765;DHT22;7983;50.744;7.086;2024-02-26T01:29:52;9.00;99.90
15765;DHT22;7983;50.744;7.086;2024-02-26T01:32:17;8.90;99.90
15765;DHT22;7983;50.744;7.086;2024-02-26T01:34:43;8.90;99.90
15765;DHT22;7983;50.744;7.086;2024-02-26T01:37:09;9.00;99.90
15765;DHT22;7983;50.744;7.086;2024-02-26T01:39:34;8.90;99.90
15765;DHT22;7983;50.744;7.086;2024-02-26T01:42:03;8.90;99.90
15765;DHT22;7983;50.744;7.086;2024-02-26T01:44:29;8.90;99.90
15765;DHT22;7983;50.744;7.086;2024-02-26T01:46:54;8.90;99.90
15765;DHT22;7983;50.744;7.086;2024-02-26T01:49:23;8.90;99.90
15765;DHT22;7983;50.744;7.086;2024-02-26T01:51:49;8.90;99.90
15765;DHT22;7983;50.744;7.086;2024-02-26T01:54:14;8.80;99.90
15765;DHT22;7983;50.744;7.086;2024-02-26T01:56:41;8.80;99.90
15765;DHT22;7983;50.744;7.086;2024-02-26T01:59:08;8.80;99.90
15765;DHT22;7983;50.744;7.086;2024-02-26T02:01:34;8.80;99.90
15765;DHT22;7983;50.744;7.086;2024-02-26T02:04:00;8.80;99.90
15765;DHT22;7983;50.744;7.086;2024-02-26T02:06:27;8.70;99.90
15765;DHT22;7983;50.744;7.086;2024-02-26T02:08:58;8.70;99.90
15765;DHT22;7983;50.744;7.086;2024-02-26T02:11:26;8.70;99.90
15765;DHT22;7983;50.744;7.086;2024-02-26T02:13:51;8.70;99.90
15765;DHT22;7983;50.744;7.086;2024-02-26T02:16:17;8.70;99.90
15765;DHT22;7983;50.744;7.086;2024-02-26T02:18:45;8.70;99.90
15765;DHT22;7983;50.744;7.086;2024-02-26T02:21:12;8.70;99.90
15765;DHT22;7983;50.744;7.086;2024-02-26T02:23:38;8.70;99.90
15765;DHT22;7983;50.744;7.086;2024-02-26T02:26:04;8.60;99.90
15765;DHT22;7983;50.744;7.086;2024-02-26T02:28:30;8.60;99.90
15765;DHT22;7983;50.744;7.086;2024-02-26T02:30:56;8.60;99.90
15765;DHT22;7983;50.744;7.086;2024-02-26T02:33:22;8.60;99.90
15765;DHT22;7983;50.744;7.086;2024-02-26T02:35:48;8.60;99.90
15765;DHT22;7983;50.744;7.086;2024-02-26T02:38:16;8.60;99.90
15765;DHT22;7983;50.744;7.086;2024-02-26T02:40:42;8.60;99.90
15765;DHT22;7983;50.744;7.086;2024-02-26T02:43:07;8.60;99.90
15765;DHT22;7983;50.744;7.086;2024-02-26T02:45:35;8.60;99.90
15765;DHT22;7983;50.744;7.086;2024-02-26T02:48:03;8.50;99.90
15765;DHT22;7983;50.744;7.086;2024-02-26T02:50:29;8.60;99.90
15765;DHT22;7983;50.744;7.086;2024-02-26T02:52:57;8.50;99.90
15765;DHT22;7983;50.744;7.086;2024-02-26T02:55:25;8.60;99.90
15765;DHT22;7983;50.744;7.086;2024-02-26T02:57:50;8.60;99.90
15765;DHT22;7983;50.744;7.086;2024-02-26T03:00:16;8.50;99.90
15765;DHT22;7983;50.744;7.086;2024-02-26T03:02:44;8.50;99.90
15765;DHT22;7983;50.744;7.086;2024-02-26T03:05:13;8.50;99.90
15765;DHT22;7983;50.744;7.086;2024-02-26T03:07:38;8.50;99.90
15765;DHT22;7983;50.744;7.086;2024-02-26T03:10:04;8.50;99.90
15765;DHT22;7983;50.744;7.086;2024-02-26T03:12:30;8.40;99.90
15765;DHT22;7983;50.744;7.086;2024-02-26T03:14:56;8.40;99.90
15765;DHT22;7983;50.744;7.086;2024-02-26T03:17:22;8.40;99.90
15765;DHT22;7983;50.744;7.086;2024-02-26T03:19:49;8.40;99.90
15765;DHT22;7983;50.744;7.086;2024-02-26T03:22:21;8.40;99.90
15765;DHT22;7983;50.744;7.086;2024-02-26T03:24:47;8.40;99.90
15765;DHT22;7983;50.744;7.086;2024-02-26T03:27:15;8.40;99.90
15765;DHT22;7983;50.744;7.086;2024-02-26T03:29:40;8.40;99.90
15765;DHT22;7983;50.744;7.086;2024-02-26T03:32:06;8.40;99.90
15765;DHT22;7983;50.744;7.086;2024-02-26T03:34:32;8.40;99.90
15765;DHT22;7983;50.744;7.086;2024-02-26T03:37:06;8.30;99.90
15765;DHT22;7983;50.744;7.086;2024-02-26T03:39:35;8.40;99.90
15765;DHT22;7983;50.744;7.086;2024-02-26T03:42:03;8.40;99.90
15765;DHT22;7983;50.744;7.086;2024-02-26T03:44:29;8.40;99.90
15765;DHT22;7983;50.744;7.086;2024-02-26T03:46:55;8.30;99.90
15765;DHT22;7983;50.744;7.086;2024-02-26T03:49:22;8.40;99.90
15765;DHT22;7983;50.744;7.086;2024-02-26T03:51:50;8.40;99.90
15765;DHT22;7983;50.744;7.086;2024-02-26T03:54:18;8.30;99.90
15765;DHT22;7983;50.744;7.086;2024-02-26T03:56:44;8.30;99.90
15765;DHT22;7983;50.744;7.086;2024-02-26T03:59:11;8.30;99.90
15765;DHT22;7983;50.744;7.086;2024-02-26T04:01:37;8.30;99.90
15765;DHT22;7983;50.744;7.086;2024-02-26T04:04:03;8.30;99.90
15765;DHT22;7983;50.744;7.086;2024-02-26T04:06:30;8.30;99.90
15765;DHT22;7983;50.744;7.086;2024-02-26T04:08:56;8.30;99.90
15765;DHT22;7983;50.744;7.086;2024-02-26T04:11:22;8.30;99.90
15765;DHT22;7983;50.744;7.086;2024-02-26T04:13:48;8.30;99.90
15765;DHT22;7983;50.744;7.086;2024-02-26T04:16:16;8.30;99.90
15765;DHT22;7983;50.744;7.086;2024-02-26T04:18:42;8.30;99.90
15765;DHT22;7983;50.744;7.086;2024-02-26T04:21:08;8.30;99.90
15765;DHT22;7983;50.744;7.086;2024-02-26T04:23:36;8.20;99.90
15765;DHT22;7983;50.744;7.086;2024-02-26T04:26:01;8.30;99.90
15765;DHT22;7983;50.744;7.086;2024-02-26T04:28:27;8.30;99.90
15765;DHT22;7983;50.744;7.086;2024-02-26T04:30:55;8.30;99.90
15765;DHT22;7983;50.744;7.086;2024-02-26T04:33:23;8.30;99.90
15765;DHT22;7983;50.744;7.086;2024-02-26T04:35:49;8.30;99.90
15765;DHT22;7983;50.744;7.086;2024-02-26T04:38:14;8.30;99.90
15765;DHT22;7983;50.744;7.086;2024-02-26T04:40:40;8.30;99.90
15765;DHT22;7983;50.744;7.086;2024-02-26T04:43:05;8.30;99.90
15765;DHT22;7983;50.744;7.086;2024-02-26T04:45:34;8.20;99.90
15765;DHT22;7983;50.744;7.086;2024-02-26T04:48:04;8.20;99.90
15765;DHT22;7983;50.744;7.086;2024-02-26T04:50:30;8.30;99.90
15765;DHT22;7983;50.744;7.086;2024-02-26T04:52:58;8.30;99.90
15765;DHT22;7983;50.744;7.086;2024-02-26T04:55:26;8.30;99.90
15765;DHT22;7983;50.744;7.086;2024-02-26T04:57:53;8.30;99.90
15765;DHT22;7983;50.744;7.086;2024-02-26T05:00:19;8.20;99.90
15765;DHT22;7983;50.744;7.086;2024-02-26T05:02:45;8.30;99.90
15765;DHT22;7983;50.744;7.086;2024-02-26T05:05:11;8.30;99.90
15765;DHT22;7983;50.744;7.086;2024-02-26T05:07:41;8.20;99.90
15765;DHT22;7983;50.744;7.086;2024-02-26T05:10:10;8.20;99.90
15765;DHT22;7983;50.744;7.086;2024-02-26T05:12:36;8.20;99.90
15765;DHT22;7983;50.744;7.086;2024-02-26T05:15:02;8.20;99.90
15765;DHT22;7983;50.744;7.086;2024-02-26T05:17:30;8.20;99.90
15765;DHT22;7983;50.744;7.086;2024-02-26T05:19:56;8.20;99.90
15765;DHT22;7983;50.744;7.086;2024-02-26T05:22:22;8.20;99.90
15765;DHT22;7983;50.744;7.086;2024-02-26T05:24:47;8.20;99.90
15765;DHT22;7983;50.744;7.086;2024-02-26T05:27:16;8.20;99.90
15765;DHT22;7983;50.744;7.086;2024-02-26T05:29:41;8.10;99.90
15765;DHT22;7983;50.744;7.086;2024-02-26T05:32:09;8.10;99.90
15765;DHT22;7983;50.744;7.086;2024-02-26T05:34:37;8.10;99.90
15765;DHT22;7983;50.744;7.086;2024-02-26T05:37:03;8.10;99.90
15765;DHT22;7983;50.744;7.086;2024-02-26T05:39:29;8.10;99.90
15765;DHT22;7983;50.744;7.086;2024-02-26T05:41:56;8.10;99.90
15765;DHT22;7983;50.744;7.086;2024-02-26T05:44:25;8.10;99.90
15765;DHT22;7983;50.744;7.086;2024-02-26T05:46:51;8.10;99.90
15765;DHT22;7983;50.744;7.086;2024-02-26T05:49:17;8.10;99.90
15765;DHT22;7983;50.744;7.086;2024-02-26T05:51:44;8.10;99.90
15765;DHT22;7983;50.744;7.086;2024-02-26T05:54:12;8.00;99.90
15765;DHT22;7983;50.744;7.086;2024-02-26T05:56:39;8.00;99.90
15765;DHT22;7983;50.744;7.086;2024-02-26T05:59:05;8.10;99.90
15765;DHT22;7983;50.744;7.086;2024-02-26T06:01:31;8.00;99.90
15765;DHT22;7983;50.744;7.086;2024-02-26T06:03:56;8.00;99.90
15765;DHT22;7983;50.744;7.086;2024-02-26T06:06:22;8.00;99.90
15765;DHT22;7983;50.744;7.086;2024-02-26T06:08:51;8.00;99.90
15765;DHT22;7983;50.744;7.086;2024-02-26T06:11:19;8.00;99.90
15765;DHT22;7983;50.744;7.086;2024-02-26T06:13:48;7.90;99.90
15765;DHT22;7983;50.744;7.086;2024-02-26T06:16:16;7.90;99.90
15765;DHT22;7983;50.744;7.086;2024-02-26T06:18:41;7.90;99.90
15765;DHT22;7983;50.744;7.086;2024-02-26T06:21:10;7.90;99.90
15765;DHT22;7983;50.744;7.086;2024-02-26T06:23:39;7.90;99.90
15765;DHT22;7983;50.744;7.086;2024-02-26T06:26:05;8.00;99.90
15765;DHT22;7983;50.744;7.086;2024-02-26T06:28:34;7.90;99.90
15765;DHT22;7983;50.744;7.086;2024-02-26T06:31:01;7.90;99.90
15765;DHT22;7983;50.744;7.086;2024-02-26T06:33:29;7.90;99.90
15765;DHT22;7983;50.744;7.086;2024-02-26T06:35:55;7.90;99.90
15765;DHT22;7983;50.744;7.086;2024-02-26T06:38:20;7.90;99.90
15765;DHT22;7983;50.744;7.086;2024-02-26T06:40:46;7.80;99.90
15765;DHT22;7983;50.744;7.086;2024-02-26T06:43:12;7.80;99.90
15765;DHT22;7983;50.744;7.086;2024-02-26T06:45:39;7.90;99.90
15765;DHT22;7983;50.744;7.086;2024-02-26T06:48:05;7.80;99.90
15765;DHT22;7983;50.744;7.086;2024-02-26T06:50:31;7.80;99.90
15765;DHT22;7983;50.744;7.086;2024-02-26T06:52:59;7.80;99.90
15765;DHT22;7983;50.744;7.086;2024-02-26T06:55:24;7.90;99.90
15765;DHT22;7983;50.744;7.086;2024-02-26T06:57:50;7.80;99.90
15765;DHT22;7983;50.744;7.086;2024-02-26T07:00:16;7.80;99.90
15765;DHT22;7983;50.744;7.086;2024-02-26T07:02:42;7.70;99.90
15765;DHT22;7983;50.744;7.086;2024-02-26T07:05:10;7.70;99.90
15765;DHT22;7983;50.744;7.086;2024-02-26T07:07:38;7.70;99.90
15765;DHT22;7983;50.744;7.086;2024-02-26T07:10:04;7.70;99.90
15765;DHT22;7983;50.744;7.086;2024-02-26T07:12:31;7.70;99.90
15765;DHT22;7983;50.744;7.086;2024-02-26T07:14:56;7.70;99.90
15765;DHT22;7983;50.744;7.086;2024-02-26T07:17:23;7.70;99.90
15765;DHT22;7983;50.744;7.086;2024-02-26T07:19:49;7.60;99.90
15765;DHT22;7983;50.744;7.086;2024-02-26T07:22:19;7.60;99.90
15765;DHT22;7983;50.744;7.086;2024-02-26T07:24:49;7.70;99.90
15765;DHT22;7983;50.744;7.086;2024-02-26T07:27:18;7.70;99.90
15765;DHT22;7983;50.744;7.086;2024-02-26T07:29:44;7.70;99.90
15765;DHT22;7983;50.744;7.086;2024-02-26T07:32:09;7.50;99.90
15765;DHT22;7983;50.744;7.086;2024-02-26T07:34:37;7.50;99.90
15765;DHT22;7983;50.744;7.086;2024-02-26T07:37:07;7.60;99.90
15765;DHT22;7983;50.744;7.086;2024-02-26T07:39:35;7.60;99.90
15765;DHT22;7983;50.744;7.086;2024-02-26T07:42:03;7.60;99.90
15765;DHT22;7983;50.744;7.086;2024-02-26T07:44:32;7.60;99.90
15765;DHT22;7983;50.744;7.086;2024-02-26T07:47:00;7.60;99.90
15765;DHT22;7983;50.744;7.086;2024-02-26T07:49:26;7.60;99.90
15765;DHT22;7983;50.744;7.086;2024-02-26T07:51:53;7.60;99.90
15765;DHT22;7983;50.744;7.086;2024-02-26T07:54:20;7.60;99.90
15765;DHT22;7983;50.744;7.086;2024-02-26T07:56:45;7.70;99.90
15765;DHT22;7983;50.744;7.086;2024-02-26T07:59:11;7.60;99.90
15765;DHT22;7983;50.744;7.086;2024-02-26T08:01:38;7.70;99.90
15765;DHT22;7983;50.744;7.086;2024-02-26T08:04:06;7.70;99.90
15765;DHT22;7983;50.744;7.086;2024-02-26T08:06:32;7.70;99.90
15765;DHT22;7983;50.744;7.086;2024-02-26T08:09:00;7.60;99.90
15765;DHT22;7983;50.744;7.086;2024-02-26T08:11:26;7.60;99.90
15765;DHT22;7983;50.744;7.086;2024-02-26T08:13:53;7.60;99.90
15765;DHT22;7983;50.744;7.086;2024-02-26T08:16:19;7.70;99.90
15765;DHT22;7983;50.744;7.086;2024-02-26T08:18:46;7.60;99.90
15765;DHT22;7983;50.744;7.086;2024-02-26T08:21:12;7.60;99.90
15765;DHT22;7983;50.744;7.086;2024-02-26T08:23:38;7.60;99.90
15765;DHT22;7983;50.744;7.086;2024-02-26T08:26:05;7.60;99.90
15765;DHT22;7983;50.744;7.086;2024-02-26T08:28:32;7.70;99.90
15765;DHT22;7983;50.744;7.086;2024-02-26T08:30:58;7.60;99.90
15765;DHT22;7983;50.744;7.086;2024-02-26T08:33:23;7.60;99.90
15765;DHT22;7983;50.744;7.086;2024-02-26T08:35:49;7.70;99.90
15765;DHT22;7983;50.744;7.086;2024-02-26T08:38:15;7.60;99.90
15765;DHT22;7983;50.744;7.086;2024-02-26T08:40:42;7.60;99.90
15765;DHT22;7983;50.744;7.086;2024-02-26T08:43:08;7.60;99.90
15765;DHT22;7983;50.744;7.086;2024-02-26T08:45:35;7.60;99.90
15765;DHT22;7983;50.744;7.086;2024-02-26T08:48:00;7.50;99.90
15765;DHT22;7983;50.744;7.086;2024-02-26T08:50:31;7.60;99.90
15765;DHT22;7983;50.744;7.086;2024-02-26T08:52:59;7.50;99.90
15765;DHT22;7983;50.744;7.086;2024-02-26T08:55:26;7.50;99.90
15765;DHT22;7983;50.744;7.086;2024-02-26T08:57:52;7.50;99.90
15765;DHT22;7983;50.744;7.086;2024-02-26T09:00:18;7.50;99.90
15765;DHT22;7983;50.744;7.086;2024-02-26T09:02:48;7.50;99.90
15765;DHT22;7983;50.744;7.086;2024-02-26T09:05:14;7.50;99.90
15765;DHT22;7983;50.744;7.086;2024-02-26T09:07:45;7.50;99.90
15765;DHT22;7983;50.744;7.086;2024-02-26T09:10:12;7.50;99.90
15765;DHT22;7983;50.744;7.086;2024-02-26T09:12:40;7.50;99.90
15765;DHT22;7983;50.744;7.086;2024-02-26T09:15:07;7.50;99.90
15765;DHT22;7983;50.744;7.086;2024-02-26T09:17:35;7.50;99.90
15765;DHT22;7983;50.744;7.086;2024-02-26T09:20:02;7.50;99.90
15765;DHT22;7983;50.744;7.086;2024-02-26T09:22:30;7.50;99.90
15765;DHT22;7983;50.744;7.086;2024-02-26T09:24:55;7.50;99.90
15765;DHT22;7983;50.744;7.086;2024-02-26T09:27:21;7.50;99.90
15765;DHT22;7983;50.744;7.086;2024-02-26T09:29:51;7.50;99.90
15765;DHT22;7983;50.744;7.086;2024-02-26T09:32:19;7.50;99.90
15765;DHT22;7983;50.744;7.086;2024-02-26T09:34:47;7.50;99.90
15765;DHT22;7983;50.744;7.086;2024-02-26T09:37:12;7.50;99.90
15765;DHT22;7983;50.744;7.086;2024-02-26T09:39:38;7.50;99.90
15765;DHT22;7983;50.744;7.086;2024-02-26T09:42:06;7.50;99.90
15765;DHT22;7983;50.744;7.086;2024-02-26T09:44:36;7.60;99.90
15765;DHT22;7983;50.744;7.086;2024-02-26T09:47:08;7.60;99.90
15765;DHT22;7983;50.744;7.086;2024-02-26T09:49:39;7.60;99.90
15765;DHT22;7983;50.744;7.086;2024-02-26T09:52:08;7.60;99.90
15765;DHT22;7983;50.744;7.086;2024-02-26T09:54:35;7.70;99.90
15765;DHT22;7983;50.744;7.086;2024-02-26T09:57:02;7.70;99.90
15765;DHT22;7983;50.744;7.086;2024-02-26T09:59:29;7.70;99.90
15765;DHT22;7983;50.744;7.086;2024-02-26T10:02:01;7.80;99.90
15765;DHT22;7983;50.744;7.086;2024-02-26T10:04:31;7.80;99.90
15765;DHT22;7983;50.744;7.086;2024-02-26T10:07:02;7.80;99.90
15765;DHT22;7983;50.744;7.086;2024-02-26T10:09:32;7.90;99.90
15765;DHT22;7983;50.744;7.086;2024-02-26T10:11:57;7.90;99.90
15765;DHT22;7983;50.744;7.086;2024-02-26T10:14:24;7.90;99.90
15765;DHT22;7983;50.744;7.086;2024-02-26T10:16:50;8.00;99.90
15765;DHT22;7983;50.744;7.086;2024-02-26T10:19:31;8.10;99.90
15765;DHT22;7983;50.744;7.086;2024-02-26T10:21:57;8.10;99.90
15765;DHT22;7983;50.744;7.086;2024-02-26T10:24:29;8.20;99.90
15765;DHT22;7983;50.744;7.086;2024-02-26T10:26:55;8.30;99.90
15765;DHT22;7983;50.744;7.086;2024-02-26T10:29:23;8.40;99.90
15765;DHT22;7983;50.744;7.086;2024-02-26T10:31:52;8.40;99.90
15765;DHT22;7983;50.744;7.086;2024-02-26T10:34:18;8.60;99.90
15765;DHT22;7983;50.744;7.086;2024-02-26T10:36:44;8.60;99.90
15765;DHT22;7983;50.744;7.086;2024-02-26T10:39:12;8.70;99.90
15765;DHT22;7983;50.744;7.086;2024-02-26T10:41:40;8.80;99.90
15765;DHT22;7983;50.744;7.086;2024-02-26T10:44:11;8.80;99.90
15765;DHT22;7983;50.744;7.086;2024-02-26T10:46:38;8.90;99.90
15765;DHT22;7983;50.744;7.086;2024-02-26T10:49:15;8.90;99.90
15765;DHT22;7983;50.744;7.086;2024-02-26T10:51:44;9.00;99.90
15765;DHT22;7983;50.744;7.086;2024-02-26T10:54:15;9.00;99.90
15765;DHT22;7983;50.744;7.086;2024-02-26T10:56:43;9.10;99.90
15765;DHT22;7983;50.744;7.086;2024-02-26T10:59:11;9.10;99.90
15765;DHT22;7983;50.744;7.086;2024-02-26T11:01:37;9.10;99.90
15765;DHT22;7983;50.744;7.086;2024-02-26T11:04:06;9.10;99.90
15765;DHT22;7983;50.744;7.086;2024-02-26T11:06:40;9.10;99.90
15765;DHT22;7983;50.744;7.086;2024-02-26T11:09:06;9.10;99.90
15765;DHT22;7983;50.744;7.086;2024-02-26T11:11:34;9.10;99.90
15765;DHT22;7983;50.744;7.086;2024-02-26T11:14:05;9.10;99.90
15765;DHT22;7983;50.744;7.086;2024-02-26T11:16:32;9.10;99.90
15765;DHT22;7983;50.744;7.086;2024-02-26T11:19:00;9.10;99.90
15765;DHT22;7983;50.744;7.086;2024-02-26T11:21:27;9.20;99.90
15765;DHT22;7983;50.744;7.086;2024-02-26T11:24:05;9.10;99.90
15765;DHT22;7983;50.744;7.086;2024-02-26T11:26:33;9.10;99.90
15765;DHT22;7983;50.744;7.086;2024-02-26T11:28:59;9.10;99.90
15765;DHT22;7983;50.744;7.086;2024-02-26T11:31:26;9.20;99.90
15765;DHT22;7983;50.744;7.086;2024-02-26T11:33:56;9.10;99.90
15765;DHT22;7983;50.744;7.086;2024-02-26T11:36:23;9.10;99.90
15765;DHT22;7983;50.744;7.086;2024-02-26T11:38:52;9.10;99.90
15765;DHT22;7983;50.744;7.086;2024-02-26T11:41:18;9.10;99.90
15765;DHT22;7983;50.744;7.086;2024-02-26T11:43:53;9.10;99.90
15765;DHT22;7983;50.744;7.086;2024-02-26T11:46:29;9.10;99.90
15765;DHT22;7983;50.744;7.086;2024-02-26T11:49:02;9.10;99.90
15765;DHT22;7983;50.744;7.086;2024-02-26T11:51:33;9.20;99.90
15765;DHT22;7983;50.744;7.086;2024-02-26T11:54:02;9.10;99.90
15765;DHT22;7983;50.744;7.086;2024-02-26T11:56:30;9.10;99.90
15765;DHT22;7983;50.744;7.086;2024-02-26T11:59:03;9.10;99.90
15765;DHT22;7983;50.744;7.086;2024-02-26T12:01:43;9.10;99.90
15765;DHT22;7983;50.744;7.086;2024-02-26T12:04:19;9.10;99.90
15765;DHT22;7983;50.744;7.086;2024-02-26T12:06:47;9.10;99.90
15765;DHT22;7983;50.744;7.086;2024-02-26T12:12:03;9.10;99.90
15765;DHT22;7983;50.744;7.086;2024-02-26T12:15:04;9.10;99.90
15765;DHT22;7983;50.744;7.086;2024-02-26T12:17:30;9.20;99.90
15765;DHT22;7983;50.744;7.086;2024-02-26T12:20:09;9.30;99.90
15765;DHT22;7983;50.744;7.086;2024-02-26T12:22:35;9.30;99.90
15765;DHT22;7983;50.744;7.086;2024-02-26T12:25:05;9.30;99.90
15765;DHT22;7983;50.744;7.086;2024-02-26T12:27:31;9.30;99.90
15765;DHT22;7983;50.744;7.086;2024-02-26T12:29:59;9.40;99.90
15765;DHT22;7983;50.744;7.086;2024-02-26T12:32:24;9.40;99.90
15765;DHT22;7983;50.744;7.086;2024-02-26T12:34:50;9.40;99.90
15765;DHT22;7983;50.744;7.086;2024-02-26T12:37:16;9.50;99.90
15765;DHT22;7983;50.744;7.086;2024-02-26T12:39:45;9.50;99.90
15765;DHT22;7983;50.744;7.086;2024-02-26T12:42:11;9.50;99.90
15765;DHT22;7983;50.744;7.086;2024-02-26T12:44:37;9.60;99.90
15765;DHT22;7983;50.744;7.086;2024-02-26T12:47:04;9.50;99.90
15765;DHT22;7983;50.744;7.086;2024-02-26T12:49:30;9.50;99.90
15765;DHT22;7983;50.744;7.086;2024-02-26T12:51:58;9.50;99.90
15765;DHT22;7983;50.744;7.086;2024-02-26T12:54:35;9.50;99.90
15765;DHT22;7983;50.744;7.086;2024-02-26T12:57:05;9.50;99.90
15765;DHT22;7983;50.744;7.086;2024-02-26T12:59:33;9.50;99.90
15765;DHT22;7983;50.744;7.086;2024-02-26T13:02:02;9.50;99.90
15765;DHT22;7983;50.744;7.086;2024-02-26T13:04:29;9.50;99.90
15765;DHT22;7983;50.744;7.086;2024-02-26T13:06:56;9.50;99.90
15765;DHT22;7983;50.744;7.086;2024-02-26T13:09:26;9.50;99.90
15765;DHT22;7983;50.744;7.086;2024-02-26T13:11:55;9.50;99.90
15765;DHT22;7983;50.744;7.086;2024-02-26T13:14:21;9.50;99.90
15765;DHT22;7983;50.744;7.086;2024-02-26T13:16:58;9.50;99.90
15765;DHT22;7983;50.744;7.086;2024-02-26T13:19:24;9.50;99.90
15765;DHT22;7983;50.744;7.086;2024-02-26T13:21:50;9.50;99.90
15765;DHT22;7983;50.744;7.086;2024-02-26T13:24:19;9.50;99.90
15765;DHT22;7983;50.744;7.086;2024-02-26T13:26:54;9.50;99.90
15765;DHT22;7983;50.744;7.086;2024-02-26T13:29:19;9.50;99.90
15765;DHT22;7983;50.744;7.086;2024-02-26T13:31:45;9.60;99.90
15765;DHT22;7983;50.744;7.086;2024-02-26T13:34:26;9.60;99.90
15765;DHT22;7983;50.744;7.086;2024-02-26T13:36:57;9.50;99.90
15765;DHT22;7983;50.744;7.086;2024-02-26T13:39:26;9.50;99.90
15765;DHT22;7983;50.744;7.086;2024-02-26T13:41:54;9.60;99.90
15765;DHT22;7983;50.744;7.086;2024-02-26T13:44:20;9.50;99.90
15765;DHT22;7983;50.744;7.086;2024-02-26T13:46:47;9.60;99.90
15765;DHT22;7983;50.744;7.086;2024-02-26T13:49:13;9.60;99.90
15765;DHT22;7983;50.744;7.086;2024-02-26T13:51:39;9.60;99.90
15765;DHT22;7983;50.744;7.086;2024-02-26T13:54:07;9.60;99.90
15765;DHT22;7983;50.744;7.086;2024-02-26T13:56:34;9.60;99.90
15765;DHT22;7983;50.744;7.086;2024-02-26T13:59:00;9.50;99.90
15765;DHT22;7983;50.744;7.086;2024-02-26T14:01:28;9.60;99.90
15765;DHT22;7983;50.744;7.086;2024-02-26T14:03:53;9.60;99.90
15765;DHT22;7983;50.744;7.086;2024-02-26T14:06:23;9.60;99.90
15765;DHT22;7983;50.744;7.086;2024-02-26T14:08:51;9.60;99.90
15765;DHT22;7983;50.744;7.086;2024-02-26T14:11:16;9.60;99.90
15765;DHT22;7983;50.744;7.086;2024-02-26T14:13:44;9.60;99.90
15765;DHT22;7983;50.744;7.086;2024-02-26T14:16:12;9.60;99.90
15765;DHT22;7983;50.744;7.086;2024-02-26T14:18:41;9.50;99.90
15765;DHT22;7983;50.744;7.086;2024-02-26T14:21:13;9.60;99.90
15765;DHT22;7983;50.744;7.086;2024-02-26T14:23:39;9.60;99.90
15765;DHT22;7983;50.744;7.086;2024-02-26T14:26:05;9.50;99.90
15765;DHT22;7983;50.744;7.086;2024-02-26T14:28:30;9.60;99.90
15765;DHT22;7983;50.744;7.086;2024-02-26T14:30:59;9.50;99.90
15765;DHT22;7983;50.744;7.086;2024-02-26T14:33:28;9.50;99.90
15765;DHT22;7983;50.744;7.086;2024-02-26T14:35:53;9.50;99.90
15765;DHT22;7983;50.744;7.086;2024-02-26T14:38:19;9.50;99.90
15765;DHT22;7983;50.744;7.086;2024-02-26T14:40:45;9.50;99.90
15765;DHT22;7983;50.744;7.086;2024-02-26T14:43:11;9.50;99.90
15765;DHT22;7983;50.744;7.086;2024-02-26T14:45:36;9.50;99.90
15765;DHT22;7983;50.744;7.086;2024-02-26T14:48:05;9.50;99.90
15765;DHT22;7983;50.744;7.086;2024-02-26T14:50:31;9.60;99.90
15765;DHT22;7983;50.744;7.086;2024-02-26T14:52:59;9.60;99.90
15765;DHT22;7983;50.744;7.086;2024-02-26T14:55:25;9.60;99.90
15765;DHT22;7983;50.744;7.086;2024-02-26T14:57:51;9.60;99.90
15765;DHT22;7983;50.744;7.086;2024-02-26T15:00:17;9.60;99.90
15765;DHT22;7983;50.744;7.086;2024-02-26T15:02:42;9.60;99.90
15765;DHT22;7983;50.744;7.086;2024-02-26T15:05:08;9.60;99.90
15765;DHT22;7983;50.744;7.086;2024-02-26T15:07:36;9.70;99.90
15765;DHT22;7983;50.744;7.086;2024-02-26T15:10:06;9.70;99.90
15765;DHT22;7983;50.744;7.086;2024-02-26T15:12:34;9.70;99.90
15765;DHT22;7983;50.744;7.086;2024-02-26T15:15:02;9.70;99.90
15765;DHT22;7983;50.744;7.086;2024-02-26T15:17:31;9.70;99.90
15765;DHT22;7983;50.744;7.086;2024-02-26T15:19:59;9.70;99.90
15765;DHT22;7983;50.744;7.086;2024-02-26T15:22:25;9.80;99.90
15765;DHT22;7983;50.744;7.086;2024-02-26T15:24:52;9.80;99.90
15765;DHT22;7983;50.744;7.086;2024-02-26T15:27:20;9.80;99.90
15765;DHT22;7983;50.744;7.086;2024-02-26T15:29:48;9.80;99.90
15765;DHT22;7983;50.744;7.086;2024-02-26T15:32:16;9.80;99.90
15765;DHT22;7983;50.744;7.086;2024-02-26T15:34:44;9.70;99.90
15765;DHT22;7983;50.744;7.086;2024-02-26T15:37:10;9.80;99.90
15765;DHT22;7983;50.744;7.086;2024-02-26T15:39:36;9.80;99.90
15765;DHT22;7983;50.744;7.086;2024-02-26T15:42:02;9.70;99.90
15765;DHT22;7983;50.744;7.086;2024-02-26T15:44:30;9.80;99.90
15765;DHT22;7983;50.744;7.086;2024-02-26T15:46:56;9.80;99.90
15765;DHT22;7983;50.744;7.086;2024-02-26T15:49:23;9.80;99.90
15765;DHT22;7983;50.744;7.086;2024-02-26T15:51:49;9.90;99.90
15765;DHT22;7983;50.744;7.086;2024-02-26T15:54:15;9.90;99.90
15765;DHT22;7983;50.744;7.086;2024-02-26T15:56:43;9.80;99.90
15765;DHT22;7983;50.744;7.086;2024-02-26T15:59:09;9.80;99.90
15765;DHT22;7983;50.744;7.086;2024-02-26T16:01:35;9.90;99.90
15765;DHT22;7983;50.744;7.086;2024-02-26T16:04:03;9.80;99.90
15765;DHT22;7983;50.744;7.086;2024-02-26T16:06:46;9.80;99.90